Glendale/Luke AFB, Arizona
Current Conditions -  °F | °C
As of 8:58 AM on Friday 21 Nov 2014 (Local Time) from KLUF Reporting Station
Broken Clouds Broken Clouds  
Wind Chill: 12°   Ceiling: 20000
Heat Index: 12°   Visibility: 10mi
Dew Point: -2°   Wind: 5mph
Humidity: 37%   Direction: 50°NE
Pressure: 29.92"   Gusts: NA
Location:  33.53°N, 112.38°W
Report Text: KLUF 211558Z 05004KT 10SM FEW100 BKN200 12/M02 A2992 RMK AO2A VIS 2V3 SLP130 T01231021 $
Loading
Personal Weather Stations






























Interactive Weather Map New forecast layout! Learn more

10-Day Weather Forecast

Advertisements
Track Severe Weather on mobile